createdAt,value
2022-08-23T00:00:40.868Z,92008.44
2022-08-23T00:03:08.216Z,92010.41
2022-08-23T00:05:36.635Z,92008.97
2022-08-23T00:08:03.921Z,91999.34
2022-08-23T00:10:31.224Z,92003.66
2022-08-23T00:12:58.493Z,91998.47
2022-08-23T00:15:25.777Z,92006.72
2022-08-23T00:17:53.072Z,92002.72
2022-08-23T00:20:20.382Z,92000.28
2022-08-23T00:22:47.701Z,91998.63
2022-08-23T00:25:14.993Z,91997.41
2022-08-23T00:27:42.394Z,92003.22
2022-08-23T00:30:09.678Z,91990.47
2022-08-23T00:32:36.960Z,91993.09
2022-08-23T00:35:04.271Z,91988.44
2022-08-23T00:37:31.563Z,91993.50
2022-08-23T00:39:58.952Z,91986.38
2022-08-23T00:42:26.268Z,91982.41
2022-08-23T00:44:53.572Z,91986.53
2022-08-23T00:47:20.905Z,91988.81
2022-08-23T00:49:48.201Z,91985.00
2022-08-23T00:52:15.471Z,91988.81
2022-08-23T00:54:42.765Z,91978.13
2022-08-23T00:57:10.028Z,91989.13
2022-08-23T00:59:37.314Z,91983.66
2022-08-23T01:02:05.846Z,91987.72
2022-08-23T01:04:33.219Z,91987.81
2022-08-23T01:07:00.520Z,91986.63
2022-08-23T01:09:27.846Z,91985.22
2022-08-23T01:11:55.123Z,91985.13
2022-08-23T01:14:22.407Z,91988.56
2022-08-23T01:16:49.706Z,91989.56
2022-08-23T01:19:16.998Z,91994.84
2022-08-23T01:21:46.236Z,91992.19
2022-08-23T01:24:19.099Z,91993.75
2022-08-23T01:27:00.806Z,91996.72
2022-08-23T01:29:28.099Z,91989.03
2022-08-23T01:31:55.378Z,91998.50
2022-08-23T01:34:22.641Z,91999.53
2022-08-23T01:36:49.946Z,91999.19
2022-08-23T01:39:17.213Z,91994.97
2022-08-23T01:41:44.477Z,91994.53
2022-08-23T01:44:11.783Z,91992.66
2022-08-23T01:46:39.057Z,91994.22
2022-08-23T01:49:08.343Z,91991.94
2022-08-23T01:51:35.865Z,91993.44
2022-08-23T01:54:03.138Z,91987.81
2022-08-23T01:56:38.639Z,91993.56
2022-08-23T01:59:06.462Z,91996.72
2022-08-23T02:01:33.744Z,91992.81
2022-08-23T02:04:05.356Z,91996.72
2022-08-23T02:06:32.764Z,91991.81
2022-08-23T02:09:00.030Z,91991.47
2022-08-23T02:11:27.334Z,91998.38
2022-08-23T02:13:54.623Z,92001.41
2022-08-23T02:16:21.891Z,92007.56
2022-08-23T02:18:49.166Z,91997.75
2022-08-23T02:21:16.462Z,92008.03
2022-08-23T02:23:43.733Z,92004.66
2022-08-23T02:26:11.030Z,92003.88
2022-08-23T02:28:38.338Z,92012.56
2022-08-23T02:31:05.607Z,92011.00
2022-08-23T02:33:33.087Z,92015.25
2022-08-23T02:36:00.648Z,92008.81
2022-08-23T02:38:27.914Z,92009.19
2022-08-23T02:41:00.942Z,92014.13
2022-08-23T02:43:28.465Z,92019.78
2022-08-23T02:45:55.751Z,92010.75
2022-08-23T02:48:23.142Z,92017.19
2022-08-23T02:50:50.421Z,92014.88
2022-08-23T02:53:17.693Z,92012.66
2022-08-23T02:55:45.075Z,92007.97
2022-08-23T02:58:12.350Z,92011.81
2022-08-23T03:00:39.628Z,92006.97
2022-08-23T03:03:06.940Z,92013.06
2022-08-23T03:05:34.216Z,92010.47
2022-08-23T03:08:01.693Z,92016.97
2022-08-23T03:10:29.105Z,92018.88
2022-08-23T03:12:56.388Z,92013.84
2022-08-23T03:15:23.679Z,92012.28
2022-08-23T03:17:50.939Z,92017.53
2022-08-23T03:20:18.209Z,92020.56
2022-08-23T03:22:49.649Z,92015.41
2022-08-23T03:25:22.397Z,92016.50
2022-08-23T03:27:49.711Z,92019.59
2022-08-23T03:30:20.001Z,92012.72
2022-08-23T03:32:48.975Z,92011.25
2022-08-23T03:35:16.655Z,92015.25
2022-08-23T03:37:43.947Z,92013.09
2022-08-23T03:40:11.247Z,92008.31
2022-08-23T03:42:38.588Z,92010.22
2022-08-23T03:45:05.847Z,92000.81
2022-08-23T03:47:33.125Z,92010.38
2022-08-23T03:50:00.412Z,92012.72
2022-08-23T03:52:27.702Z,92011.47
2022-08-23T03:54:55.097Z,92018.34
2022-08-23T03:57:24.340Z,92016.50
2022-08-23T03:59:51.599Z,92021.81
2022-08-23T04:02:18.901Z,92014.28
2022-08-23T04:04:46.186Z,92020.41
2022-08-23T04:07:13.463Z,92026.06
2022-08-23T04:09:40.810Z,92023.00
2022-08-23T04:12:17.520Z,92029.88
2022-08-23T04:14:45.253Z,92020.72
2022-08-23T04:17:12.558Z,92028.81
2022-08-23T04:19:39.823Z,92038.22
2022-08-23T04:22:07.103Z,92035.59
2022-08-23T04:24:34.411Z,92036.31
2022-08-23T04:27:01.745Z,92047.34
2022-08-23T04:29:34.587Z,92051.16
2022-08-23T04:32:02.079Z,92050.03
2022-08-23T04:34:32.684Z,92055.66
2022-08-23T04:36:59.980Z,92050.41
2022-08-23T04:39:29.218Z,92050.06
2022-08-23T04:41:56.487Z,92051.97
2022-08-23T04:44:25.604Z,92057.31
2022-08-23T04:46:52.900Z,92062.56
2022-08-23T04:49:20.180Z,92063.72
2022-08-23T04:51:52.943Z,92058.41
2022-08-23T04:54:22.586Z,92069.72
2022-08-23T04:56:50.880Z,92067.84
2022-08-23T04:59:19.170Z,92066.34
2022-08-23T05:01:46.470Z,92065.97
2022-08-23T05:04:13.802Z,92070.50
2022-08-23T05:06:41.143Z,92071.63
2022-08-23T05:09:08.533Z,92070.88
2022-08-23T05:11:37.757Z,92073.13
2022-08-23T05:14:05.036Z,92073.88
2022-08-23T05:16:32.423Z,92073.09
2022-08-23T05:19:01.738Z,92078.38
2022-08-23T05:21:29.011Z,92087.84
2022-08-23T05:23:56.288Z,92087.81
2022-08-23T05:26:23.584Z,92088.16
2022-08-23T05:28:50.880Z,92094.22
2022-08-23T05:31:18.152Z,92095.72
2022-08-23T05:33:47.455Z,92096.38
2022-08-23T05:36:14.728Z,92090.25
2022-08-23T05:38:42.137Z,92098.88
2022-08-23T05:41:09.422Z,92103.31
2022-08-23T05:43:36.701Z,92099.06
2022-08-23T05:46:03.998Z,92113.31
2022-08-23T05:48:31.281Z,92100.31
2022-08-23T05:50:58.551Z,92102.84
2022-08-23T05:53:25.846Z,92112.09
2022-08-23T05:55:53.141Z,92113.44
2022-08-23T05:58:20.415Z,92103.50
2022-08-23T06:00:47.770Z,92108.38
2022-08-23T06:03:15.100Z,92110.97
2022-08-23T06:05:42.460Z,92110.28
2022-08-23T06:08:09.867Z,92113.44
2022-08-23T06:10:41.585Z,92123.75
2022-08-23T06:13:09.560Z,92115.03
2022-08-23T06:15:38.917Z,92118.16
2022-08-23T06:18:06.276Z,92109.22
2022-08-23T06:20:33.617Z,92112.63
2022-08-23T06:23:00.976Z,92108.66
2022-08-23T06:25:28.281Z,92111.88
2022-08-23T06:27:57.723Z,92113.28
2022-08-23T06:30:25.039Z,92113.97
2022-08-23T06:32:52.424Z,92112.59
2022-08-23T06:35:39.490Z,92115.16
2022-08-23T06:38:07.025Z,92116.72
2022-08-23T06:40:34.315Z,92122.84
2022-08-23T06:43:01.595Z,92116.16
2022-08-23T06:45:35.038Z,92127.44
2022-08-23T06:48:02.909Z,92117.38
2022-08-23T06:50:32.433Z,92124.72
2022-08-23T06:53:00.162Z,92126.63
2022-08-23T06:55:27.439Z,92127.91
2022-08-23T06:57:54.751Z,92131.22
2022-08-23T07:00:22.724Z,92129.13
2022-08-23T07:02:50.339Z,92131.53
2022-08-23T07:05:17.741Z,92129.41
2022-08-23T07:07:45.040Z,92127.50
2022-08-23T07:10:12.360Z,92133.44
2022-08-23T07:12:41.597Z,92131.44
2022-08-23T07:15:08.898Z,92137.22
2022-08-23T07:17:36.189Z,92131.31
2022-08-23T07:20:03.462Z,92137.84
2022-08-23T07:22:30.831Z,92132.00
2022-08-23T07:24:58.174Z,92136.69
2022-08-23T07:27:25.467Z,92144.44
2022-08-23T07:29:52.773Z,92146.53
2022-08-23T07:32:20.089Z,92140.47
2022-08-23T07:34:47.414Z,92147.13
2022-08-23T07:37:15.438Z,92137.75
2022-08-23T07:39:43.231Z,92149.78
2022-08-23T07:42:24.105Z,92147.84
2022-08-23T07:44:51.705Z,92155.16
2022-08-23T07:47:20.003Z,92146.75
2022-08-23T07:49:47.296Z,92156.59
2022-08-23T07:52:14.606Z,92158.75
2022-08-23T07:54:42.538Z,92147.94
2022-08-23T07:57:16.173Z,92157.56
2022-08-23T07:59:43.438Z,92152.84
2022-08-23T08:02:10.803Z,92159.84
2022-08-23T08:04:38.147Z,92162.22
2022-08-23T08:07:18.885Z,92160.56
2022-08-23T08:09:47.904Z,92159.00
2022-08-23T08:12:15.194Z,92164.50
2022-08-23T08:14:42.822Z,92163.78
2022-08-23T08:17:10.108Z,92156.91
2022-08-23T08:19:37.500Z,92163.38
2022-08-23T08:22:04.778Z,92172.19
2022-08-23T08:24:32.068Z,92172.28
2022-08-23T08:26:59.370Z,92169.94
2022-08-23T08:29:26.666Z,92170.34
2022-08-23T08:31:54.557Z,92170.41
2022-08-23T08:34:21.969Z,92171.13
2022-08-23T08:36:49.325Z,92171.50
2022-08-23T08:39:16.836Z,92168.41
2022-08-23T08:41:44.096Z,92164.41
2022-08-23T08:44:15.779Z,92167.25
2022-08-23T08:46:43.616Z,92172.19
2022-08-23T08:49:10.971Z,92165.69
2022-08-23T08:51:38.235Z,92178.84
2022-08-23T08:54:05.524Z,92167.59
2022-08-23T08:56:33.038Z,92174.94
2022-08-23T08:59:00.383Z,92174.28
2022-08-23T09:01:27.713Z,92169.66
2022-08-23T09:03:55.029Z,92173.84
2022-08-23T09:06:22.354Z,92175.13
2022-08-23T09:08:49.752Z,92163.91
2022-08-23T09:11:17.019Z,92170.16
2022-08-23T09:13:46.326Z,92169.75
2022-08-23T09:16:13.850Z,92173.47
2022-08-23T09:18:41.178Z,92169.22
2022-08-23T09:21:08.464Z,92162.38
2022-08-23T09:23:38.322Z,92169.88
2022-08-23T09:26:05.685Z,92173.06
2022-08-23T09:28:32.974Z,92171.63
2022-08-23T09:31:00.329Z,92168.09
2022-08-23T09:33:27.631Z,92167.66
2022-08-23T09:35:54.922Z,92169.91
2022-08-23T09:38:22.192Z,92161.88
2022-08-23T09:40:49.487Z,92166.94
2022-08-23T09:43:16.758Z,92167.63
2022-08-23T09:45:44.150Z,92159.44
2022-08-23T09:48:13.400Z,92170.50
2022-08-23T09:50:40.715Z,92170.22
2022-08-23T09:53:08.032Z,92163.66
2022-08-23T09:55:35.295Z,92158.47
2022-08-23T09:58:02.577Z,92162.66
2022-08-23T10:00:29.900Z,92163.50
2022-08-23T10:02:57.183Z,92167.06
2022-08-23T10:05:24.466Z,92161.69
2022-08-23T10:07:51.770Z,92160.41
2022-08-23T10:10:19.049Z,92164.25
2022-08-23T10:12:46.325Z,92155.81
2022-08-23T10:15:13.637Z,92155.69
2022-08-23T10:17:40.938Z,92156.97
2022-08-23T10:20:08.225Z,92148.41
2022-08-23T10:22:35.524Z,92145.94
2022-08-23T10:25:04.197Z,92159.88
2022-08-23T10:27:33.063Z,92151.66
2022-08-23T10:30:00.321Z,92145.56
2022-08-23T10:32:27.598Z,92146.81
2022-08-23T10:34:54.898Z,92144.78
2022-08-23T10:37:22.171Z,92140.59
2022-08-23T10:39:49.513Z,92133.59
2022-08-23T10:42:16.827Z,92136.72
2022-08-23T10:44:44.135Z,92133.41
2022-08-23T10:47:11.419Z,92137.25
2022-08-23T10:49:38.706Z,92128.28
2022-08-23T10:52:06.011Z,92133.09
2022-08-23T10:54:33.289Z,92126.66
2022-08-23T10:57:00.583Z,92136.63
2022-08-23T10:59:27.887Z,92136.13
2022-08-23T11:01:55.250Z,92134.66
2022-08-23T11:04:22.566Z,92131.63
2022-08-23T11:06:49.867Z,92124.78
2022-08-23T11:09:17.168Z,92127.53
2022-08-23T11:11:44.437Z,92121.91
2022-08-23T11:14:11.718Z,92120.63
2022-08-23T11:16:39.015Z,92122.97
2022-08-23T11:19:06.276Z,92124.81
2022-08-23T11:21:33.606Z,92124.09
2022-08-23T11:24:00.911Z,92122.78
2022-08-23T11:26:28.208Z,92124.66
2022-08-23T11:28:55.476Z,92120.22
2022-08-23T11:31:22.778Z,92121.75
2022-08-23T11:33:50.168Z,92123.19
2022-08-23T11:36:17.427Z,92126.44
2022-08-23T11:38:44.692Z,92123.09
2022-08-23T11:41:11.978Z,92119.22
2022-08-23T11:43:39.353Z,92127.84
2022-08-23T11:46:07.072Z,92130.03
2022-08-23T11:48:34.365Z,92125.84
2022-08-23T11:51:01.693Z,92135.56
2022-08-23T11:53:28.983Z,92135.09
2022-08-23T11:55:56.276Z,92138.66
2022-08-23T11:58:25.501Z,92133.97
2022-08-23T12:00:52.804Z,92143.25
2022-08-23T12:03:20.206Z,92131.53
2022-08-23T12:05:47.584Z,92129.63
2022-08-23T12:08:14.867Z,92135.34
2022-08-23T12:10:42.158Z,92129.72
2022-08-23T12:13:09.455Z,92127.22
2022-08-23T12:15:41.897Z,92124.59
2022-08-23T12:18:09.207Z,92126.16
2022-08-23T12:20:36.611Z,92119.56
2022-08-23T12:23:06.055Z,92117.66
2022-08-23T12:25:33.753Z,92128.78
2022-08-23T12:28:01.261Z,92115.59
2022-08-23T12:30:28.705Z,92115.16
2022-08-23T12:32:55.987Z,92119.03
2022-08-23T12:35:23.273Z,92119.22
2022-08-23T12:37:51.500Z,92115.03
2022-08-23T12:40:18.931Z,92115.41
2022-08-23T12:42:46.268Z,92121.88
2022-08-23T12:45:13.543Z,92117.56
2022-08-23T12:47:42.992Z,92118.84
2022-08-23T12:50:10.458Z,92128.44
2022-08-23T12:52:37.757Z,92121.53
2022-08-23T12:55:05.050Z,92124.28
2022-08-23T12:57:32.357Z,92121.19
2022-08-23T13:00:17.235Z,92131.06
2022-08-23T13:02:45.644Z,92127.03
2022-08-23T13:05:13.685Z,92123.88
2022-08-23T13:07:41.075Z,92118.44
2022-08-23T13:10:08.370Z,92127.59
2022-08-23T13:12:35.660Z,92118.97
2022-08-23T13:15:02.977Z,92115.28
2022-08-23T13:17:30.245Z,92115.06
2022-08-23T13:19:57.519Z,92109.66
2022-08-23T13:22:24.817Z,92111.50
2022-08-23T13:25:11.439Z,92108.47
2022-08-23T13:27:39.343Z,92111.50
2022-08-23T13:30:06.645Z,92111.91
2022-08-23T13:32:33.940Z,92104.19
2022-08-23T13:35:01.222Z,92110.41
2022-08-23T13:37:28.536Z,92100.63
2022-08-23T13:39:56.118Z,92109.88
2022-08-23T13:42:23.464Z,92104.78
2022-08-23T13:44:50.772Z,92098.25
2022-08-23T13:47:18.065Z,92097.16
2022-08-23T13:49:45.328Z,92100.47
2022-08-23T13:52:41.585Z,92099.47
2022-08-23T13:54:59.839Z,92097.34
2022-08-23T13:57:30.092Z,92114.56
2022-08-23T13:59:59.570Z,92101.81
2022-08-23T14:02:26.885Z,92105.00
2022-08-23T14:04:54.267Z,92094.28
2022-08-23T14:07:21.586Z,92098.84
2022-08-23T14:09:53.120Z,92099.91
2022-08-23T14:12:22.165Z,92098.06
2022-08-23T14:14:49.473Z,92107.53
2022-08-23T14:17:17.328Z,92105.06
2022-08-23T14:22:34.678Z,92103.78
2022-08-23T14:25:02.041Z,92106.34
2022-08-23T14:27:29.321Z,92098.75
2022-08-23T14:29:56.630Z,92104.38
2022-08-23T14:32:23.903Z,92098.59
2022-08-23T14:34:52.844Z,92103.22
2022-08-23T14:38:02.046Z,92103.34
2022-08-23T14:40:07.464Z,92090.59
2022-08-23T14:42:34.816Z,92096.91
2022-08-23T14:45:02.116Z,92102.56
2022-08-23T14:47:29.405Z,92101.69
2022-08-23T14:49:56.787Z,92102.28
2022-08-23T14:52:24.056Z,92099.28
2022-08-23T14:54:51.331Z,92108.41
2022-08-23T14:57:18.662Z,92107.81
2022-08-23T14:59:45.954Z,92106.59
2022-08-23T15:02:13.240Z,92100.63
2022-08-23T15:04:40.632Z,92102.56
2022-08-23T15:07:17.671Z,92103.63
2022-08-23T15:09:46.198Z,92109.31
2022-08-23T15:12:57.208Z,92118.13
2022-08-23T15:15:00.912Z,92115.13
2022-08-23T15:17:31.555Z,92108.69
2022-08-23T15:19:59.176Z,92110.69
2022-08-23T15:22:26.479Z,92106.91
2022-08-23T15:24:53.747Z,92108.34
2022-08-23T15:27:21.041Z,92110.56
2022-08-23T15:29:48.337Z,92115.66
2022-08-23T15:32:15.616Z,92110.66
2022-08-23T15:34:49.766Z,92106.03
2022-08-23T15:37:17.064Z,92102.72
2022-08-23T15:39:44.389Z,92113.00
2022-08-23T15:42:16.610Z,92111.53
2022-08-23T15:44:47.678Z,92105.13
2022-08-23T15:47:14.942Z,92109.69
2022-08-23T15:49:42.212Z,92108.44
2022-08-23T15:52:09.511Z,92107.97
2022-08-23T15:54:36.791Z,92101.44
2022-08-23T15:57:04.068Z,92102.31
2022-08-23T15:59:31.351Z,92098.41
2022-08-23T16:01:58.689Z,92098.56
2022-08-23T16:04:25.991Z,92103.78
2022-08-23T16:06:53.289Z,92099.16
2022-08-23T16:09:20.566Z,92102.56
2022-08-23T16:11:47.873Z,92103.09
2022-08-23T16:14:15.156Z,92100.41
2022-08-23T16:16:42.472Z,92105.47
2022-08-23T16:19:09.809Z,92100.41
2022-08-23T16:21:37.079Z,92102.13
2022-08-23T16:24:04.376Z,92103.97
2022-08-23T16:26:35.139Z,92101.31
2022-08-23T16:29:02.795Z,92107.16
2022-08-23T16:31:38.757Z,92102.00
2022-08-23T16:34:06.426Z,92107.38
2022-08-23T16:36:33.718Z,92102.63
2022-08-23T16:39:00.990Z,92098.34
2022-08-23T16:41:28.275Z,92101.78
2022-08-23T16:43:55.564Z,92104.31
2022-08-23T16:46:22.860Z,92103.44
2022-08-23T16:48:50.172Z,92102.97
2022-08-23T16:51:17.457Z,92102.91
2022-08-23T16:53:44.859Z,92106.59
2022-08-23T16:56:30.892Z,92101.09
2022-08-23T16:58:58.183Z,92098.59
2022-08-23T17:01:25.755Z,92102.44
2022-08-23T17:03:53.451Z,92104.59
2022-08-23T17:06:20.740Z,92104.91
2022-08-23T17:08:48.036Z,92098.94
2022-08-23T17:11:15.309Z,92098.31
2022-08-23T17:13:42.596Z,92106.66
2022-08-23T17:16:09.901Z,92102.16
2022-08-23T17:18:37.186Z,92103.56
2022-08-23T17:21:04.471Z,92108.03
2022-08-23T17:23:31.792Z,92098.94
2022-08-23T17:25:59.862Z,92106.78
2022-08-23T17:28:27.134Z,92104.81
2022-08-23T17:30:58.883Z,92107.38
2022-08-23T17:33:26.140Z,92110.78
2022-08-23T17:35:53.418Z,92113.34
2022-08-23T17:38:20.704Z,92112.78
2022-08-23T17:40:47.973Z,92110.94
2022-08-23T17:43:15.246Z,92113.03
2022-08-23T17:45:42.634Z,92115.66
2022-08-23T17:48:10.020Z,92124.09
2022-08-23T17:50:37.292Z,92122.38
2022-08-23T17:53:04.567Z,92122.31
2022-08-23T17:55:31.863Z,92127.59
2022-08-23T17:58:03.790Z,92131.38
2022-08-23T18:00:31.514Z,92126.16
2022-08-23T18:02:58.845Z,92129.41
2022-08-23T18:05:26.125Z,92136.06
2022-08-23T18:07:53.418Z,92138.97
2022-08-23T18:10:20.713Z,92143.50
2022-08-23T18:12:48.018Z,92139.63
2022-08-23T18:15:15.299Z,92147.38
2022-08-23T18:17:43.591Z,92147.25
2022-08-23T18:20:10.873Z,92148.41
2022-08-23T18:22:38.177Z,92154.66
2022-08-23T18:25:07.305Z,92152.28
2022-08-23T18:27:34.581Z,92157.44
2022-08-23T18:30:01.863Z,92163.34
2022-08-23T18:32:29.177Z,92163.78
2022-08-23T18:34:56.457Z,92173.81
2022-08-23T18:37:23.728Z,92167.28
2022-08-23T18:39:51.039Z,92168.22
2022-08-23T18:42:18.348Z,92169.81
2022-08-23T18:44:45.965Z,92168.53
2022-08-23T18:47:13.260Z,92172.41
2022-08-23T18:49:40.545Z,92180.88
2022-08-23T18:52:07.837Z,92185.69
2022-08-23T18:54:35.137Z,92190.03
2022-08-23T18:57:02.407Z,92191.53
2022-08-23T18:59:29.683Z,92190.59
2022-08-23T19:01:57.098Z,92194.63
2022-08-23T19:04:24.469Z,92197.56
2022-08-23T19:06:53.472Z,92198.38
2022-08-23T19:09:21.674Z,92192.47
2022-08-23T19:11:48.977Z,92198.00
2022-08-23T19:14:16.280Z,92204.44
2022-08-23T19:16:47.994Z,92207.13
2022-08-23T19:19:15.773Z,92207.59
2022-08-23T19:21:43.056Z,92214.78
2022-08-23T19:24:10.323Z,92220.72
2022-08-23T19:26:37.622Z,92221.56
2022-08-23T19:29:04.887Z,92228.50
2022-08-23T19:31:37.219Z,92218.13
2022-08-23T19:34:07.005Z,92221.25
2022-08-23T19:36:46.444Z,92221.72
2022-08-23T19:39:15.493Z,92227.13
2022-08-23T19:41:42.785Z,92226.97
2022-08-23T19:44:10.087Z,92226.88
2022-08-23T19:46:37.355Z,92232.94
2022-08-23T19:49:06.952Z,92227.75
2022-08-23T19:51:34.532Z,92228.34
2022-08-23T19:54:01.839Z,92226.84
2022-08-23T19:56:29.590Z,92232.41
2022-08-23T19:58:57.712Z,92228.25
2022-08-23T20:01:25.110Z,92235.66
2022-08-23T20:03:52.376Z,92232.44
2022-08-23T20:06:19.652Z,92236.69
2022-08-23T20:08:47.525Z,92227.63
2022-08-23T20:11:14.806Z,92227.25
2022-08-23T20:13:42.093Z,92221.47
2022-08-23T20:16:09.415Z,92222.50
2022-08-23T20:18:36.705Z,92241.88
2022-08-23T20:21:03.975Z,92232.72
2022-08-23T20:23:31.359Z,92233.78
2022-08-23T20:25:58.648Z,92238.81
2022-08-23T20:28:26.538Z,92231.16
2022-08-23T20:30:55.879Z,92229.41
2022-08-23T20:33:23.160Z,92232.69
2022-08-23T20:35:50.424Z,92228.72
2022-08-23T20:38:31.378Z,92228.72
2022-08-23T20:41:01.031Z,92225.44
2022-08-23T20:43:30.618Z,92229.50
2022-08-23T20:45:57.937Z,92225.91
2022-08-23T20:48:25.203Z,92225.16
2022-08-23T20:50:52.500Z,92223.69
2022-08-23T20:53:19.779Z,92224.00
2022-08-23T20:55:47.048Z,92218.13
2022-08-23T20:58:14.351Z,92216.88
2022-08-23T21:00:41.647Z,92212.25
2022-08-23T21:03:08.949Z,92212.72
2022-08-23T21:05:36.323Z,92210.03
2022-08-23T21:08:03.782Z,92208.81
2022-08-23T21:10:31.373Z,92213.31
2022-08-23T21:12:58.686Z,92214.38
2022-08-23T21:15:25.999Z,92218.66
2022-08-23T21:17:53.284Z,92206.81
2022-08-23T21:20:20.580Z,92216.69
2022-08-23T21:22:47.854Z,92209.63
2022-08-23T21:25:15.121Z,92211.13
2022-08-23T21:27:42.422Z,92212.47
2022-08-23T21:30:09.707Z,92209.06
2022-08-23T21:32:37.007Z,92209.50
2022-08-23T21:35:04.315Z,92207.69
2022-08-23T21:37:31.625Z,92209.75
2022-08-23T21:39:58.931Z,92207.84
2022-08-23T21:42:26.259Z,92207.88
2022-08-23T21:44:53.545Z,92203.84
2022-08-23T21:47:20.825Z,92191.78
2022-08-23T21:49:48.125Z,92197.81
2022-08-23T21:52:15.397Z,92197.75
2022-08-23T21:54:43.667Z,92193.75
2022-08-23T21:57:11.180Z,92198.16
2022-08-23T21:59:38.435Z,92189.41
2022-08-23T22:02:05.779Z,92188.88
2022-08-23T22:04:33.191Z,92187.22
2022-08-23T22:07:00.783Z,92195.25
2022-08-23T22:09:31.058Z,92195.44
2022-08-23T22:11:58.910Z,92190.50
2022-08-23T22:14:31.296Z,92190.56
2022-08-23T22:16:59.000Z,92184.28
2022-08-23T22:19:26.348Z,92185.81
2022-08-23T22:21:53.654Z,92183.97
2022-08-23T22:24:24.829Z,92198.09
2022-08-23T22:26:52.995Z,92197.78
2022-08-23T22:29:20.331Z,92195.16
2022-08-23T22:31:47.596Z,92178.16
2022-08-23T22:34:14.875Z,92181.44
2022-08-23T22:36:42.183Z,92187.66
2022-08-23T22:39:09.445Z,92181.56
2022-08-23T22:41:36.704Z,92182.13
2022-08-23T22:44:03.993Z,92182.41
2022-08-23T22:46:31.371Z,92174.25
2022-08-23T22:48:59.197Z,92190.94
2022-08-23T22:51:28.033Z,92189.63
2022-08-23T22:53:55.299Z,92184.94
2022-08-23T22:56:22.576Z,92177.44
2022-08-23T22:58:52.876Z,92188.00
2022-08-23T23:01:20.394Z,92185.94
2022-08-23T23:03:49.114Z,92182.38
2022-08-23T23:06:17.880Z,92182.94
2022-08-23T23:08:45.259Z,92181.72
2022-08-23T23:11:12.525Z,92177.91
2022-08-23T23:13:39.825Z,92178.13
2022-08-23T23:16:07.218Z,92178.09
2022-08-23T23:18:34.484Z,92179.78
2022-08-23T23:21:01.759Z,92175.03
2022-08-23T23:23:29.047Z,92176.78
2022-08-23T23:25:56.332Z,92174.28
2022-08-23T23:28:23.605Z,92181.38
2022-08-23T23:30:50.925Z,92171.97
2022-08-23T23:33:18.301Z,92173.25
2022-08-23T23:35:45.598Z,92168.88
2022-08-23T23:38:12.863Z,92168.91
2022-08-23T23:40:40.163Z,92169.53
2022-08-23T23:43:07.461Z,92171.66
2022-08-23T23:45:39.238Z,92166.13
2022-08-23T23:48:08.757Z,92166.75
2022-08-23T23:50:36.179Z,92162.31
2022-08-23T23:53:03.567Z,92164.13
2022-08-23T23:55:30.870Z,92166.50
2022-08-23T23:57:58.197Z,92158.22
